createdAt,value
2019-03-26T00:00:44.403Z,98885.00
2019-03-26T00:04:45.375Z,98899.00
2019-03-26T00:08:46.373Z,98904.00
2019-03-26T00:12:47.407Z,98900.00
2019-03-26T00:16:48.499Z,98904.00
2019-03-26T00:20:49.404Z,98911.00
2019-03-26T00:24:50.297Z,98916.00
2019-03-26T00:28:51.146Z,98920.00
2019-03-26T00:32:52.034Z,98908.00
2019-03-26T00:36:53.133Z,98912.00
2019-03-26T00:40:54.102Z,98918.00
2019-03-26T00:44:55.000Z,98928.00
2019-03-26T00:48:55.935Z,98930.00
2019-03-26T00:52:56.906Z,98924.00
2019-03-26T00:56:57.806Z,98924.00
2019-03-26T01:00:58.724Z,98916.00
2019-03-26T01:04:59.600Z,98920.00
2019-03-26T01:09:00.599Z,98929.00
2019-03-26T01:13:01.548Z,98929.00
2019-03-26T01:17:02.639Z,98933.00
2019-03-26T01:21:03.577Z,98938.00
2019-03-26T01:25:04.781Z,98934.00
2019-03-26T01:29:05.766Z,98939.00
2019-03-26T01:33:06.638Z,98944.00
2019-03-26T01:37:07.606Z,98951.00
2019-03-26T01:41:08.598Z,98948.00
2019-03-26T01:45:09.689Z,98944.00
2019-03-26T01:49:10.695Z,98947.00
2019-03-26T01:53:11.596Z,98951.00
2019-03-26T01:57:12.472Z,98955.00
2019-03-26T02:01:13.346Z,98957.00
2019-03-26T02:05:14.232Z,98959.00
2019-03-26T02:09:15.141Z,98957.00
2019-03-26T02:13:16.005Z,98966.00
2019-03-26T02:17:16.877Z,98963.00
2019-03-26T02:21:17.756Z,98968.00
2019-03-26T02:25:18.634Z,98967.00
2019-03-26T02:29:19.514Z,98971.00
2019-03-26T02:33:20.350Z,98964.00
2019-03-26T02:37:21.232Z,98962.00
2019-03-26T02:41:22.211Z,98964.00
2019-03-26T02:45:23.204Z,98956.00
2019-03-26T02:49:24.124Z,98965.00
2019-03-26T02:53:24.981Z,98966.00
2019-03-26T02:57:25.873Z,98975.00
2019-03-26T03:01:26.766Z,98976.00
2019-03-26T03:05:35.183Z,98978.00
2019-03-26T03:09:30.419Z,98984.00
2019-03-26T03:13:31.290Z,98983.00
2019-03-26T03:17:32.190Z,98981.00
2019-03-26T03:21:33.071Z,98986.00
2019-03-26T03:25:33.960Z,98992.00
2019-03-26T03:29:34.820Z,98982.00
2019-03-26T03:33:35.907Z,98985.00
2019-03-26T03:37:36.897Z,98987.00
2019-03-26T03:41:37.786Z,98989.00
2019-03-26T03:45:39.463Z,98988.00
2019-03-26T03:49:40.652Z,98999.00
2019-03-26T03:53:41.655Z,98999.00
2019-03-26T03:57:43.917Z,98997.00
2019-03-26T04:01:44.778Z,99004.00
2019-03-26T04:05:45.624Z,98997.00
2019-03-26T04:09:46.560Z,99012.00
2019-03-26T04:13:47.464Z,99019.00
2019-03-26T04:17:48.425Z,99021.00
2019-03-26T04:21:49.295Z,99014.00
2019-03-26T04:25:50.195Z,99018.00
2019-03-26T04:29:51.075Z,99023.00
2019-03-26T04:33:51.971Z,99031.00
2019-03-26T04:37:52.873Z,99047.00
2019-03-26T04:41:53.741Z,99037.00
2019-03-26T04:45:54.628Z,99043.00
2019-03-26T04:49:55.540Z,99040.00
2019-03-26T04:53:56.540Z,99043.00
2019-03-26T04:57:57.384Z,99050.00
2019-03-26T05:01:58.268Z,99052.00
2019-03-26T05:05:59.163Z,99051.00
2019-03-26T05:10:00.353Z,99044.00
2019-03-26T05:14:01.294Z,99049.00
2019-03-26T05:18:02.183Z,99053.00
2019-03-26T05:22:03.231Z,99051.00
2019-03-26T05:26:04.333Z,99050.00
2019-03-26T05:30:09.097Z,99052.00
2019-03-26T05:34:09.963Z,99056.00
2019-03-26T05:38:10.859Z,99057.00
2019-03-26T05:42:11.841Z,99056.00
2019-03-26T05:46:12.701Z,99044.00
2019-03-26T05:50:13.828Z,99057.00
2019-03-26T05:54:14.714Z,99052.00
2019-03-26T05:58:15.599Z,99056.00
2019-03-26T06:02:18.002Z,99055.00
2019-03-26T06:06:19.188Z,99058.00
2019-03-26T06:10:20.034Z,99067.00
2019-03-26T06:14:20.926Z,99063.00
2019-03-26T06:18:21.808Z,99052.00
2019-03-26T06:22:22.715Z,99065.00
2019-03-26T06:26:23.673Z,99060.00
2019-03-26T06:30:24.665Z,99064.00
2019-03-26T06:34:25.590Z,99074.00
2019-03-26T06:38:27.034Z,99068.00
2019-03-26T06:42:28.646Z,99063.00
2019-03-26T06:46:30.040Z,99071.00
2019-03-26T06:50:31.570Z,99080.00
2019-03-26T06:54:35.550Z,99076.00
2019-03-26T06:58:36.519Z,99077.00
2019-03-26T07:02:37.776Z,99093.00
2019-03-26T07:06:38.777Z,99086.00
2019-03-26T07:10:39.748Z,99099.00
2019-03-26T07:14:40.883Z,99100.00
2019-03-26T07:18:41.788Z,99106.00
2019-03-26T07:22:42.654Z,99110.00
2019-03-26T07:26:43.575Z,99111.00
2019-03-26T07:30:44.780Z,99114.00
2019-03-26T07:34:45.739Z,99111.00
2019-03-26T07:38:46.759Z,99123.00
2019-03-26T07:42:47.622Z,99117.00
2019-03-26T07:46:48.509Z,99117.00
2019-03-26T07:50:49.513Z,99124.00
2019-03-26T07:54:50.409Z,99132.00
2019-03-26T07:58:51.280Z,99136.00
2019-03-26T08:02:54.564Z,99133.00
2019-03-26T08:06:55.556Z,99126.00
2019-03-26T08:10:56.426Z,99131.00
2019-03-26T08:14:57.331Z,99143.00
2019-03-26T08:18:59.273Z,99146.00
2019-03-26T08:23:02.305Z,99159.00
2019-03-26T08:27:03.364Z,99148.00
2019-03-26T08:31:04.564Z,99164.00
2019-03-26T08:35:05.673Z,99173.00
2019-03-26T08:39:06.664Z,99161.00
2019-03-26T08:43:07.659Z,99172.00
2019-03-26T08:47:08.628Z,99171.00
2019-03-26T08:51:09.642Z,99185.00
2019-03-26T08:55:10.876Z,99185.00
2019-03-26T08:59:11.762Z,99192.00
2019-03-26T09:03:12.770Z,99193.00
2019-03-26T09:07:13.747Z,99186.00
2019-03-26T09:11:14.589Z,99203.00
2019-03-26T09:15:15.687Z,99209.00
2019-03-26T09:19:16.694Z,99212.00
2019-03-26T09:23:17.579Z,99221.00
2019-03-26T09:27:18.427Z,99219.00
2019-03-26T09:31:19.437Z,99224.00
2019-03-26T09:35:20.487Z,99218.00
2019-03-26T09:39:21.351Z,99208.00
2019-03-26T09:43:22.338Z,99219.00
2019-03-26T09:47:23.512Z,99218.00
2019-03-26T09:51:24.555Z,99214.00
2019-03-26T09:55:25.429Z,99219.00
2019-03-26T09:59:26.318Z,99217.00
2019-03-26T10:03:27.181Z,99212.00
2019-03-26T10:07:28.047Z,99210.00
2019-03-26T10:11:29.143Z,99210.00
2019-03-26T10:15:30.118Z,99201.00
2019-03-26T10:19:31.126Z,99194.00
2019-03-26T10:23:32.233Z,99196.00
2019-03-26T10:27:35.106Z,99190.00
2019-03-26T10:31:36.458Z,99192.00
2019-03-26T10:35:37.415Z,99197.00
2019-03-26T10:39:38.294Z,99197.00
2019-03-26T10:43:39.180Z,99191.00
2019-03-26T10:47:40.090Z,99180.00
2019-03-26T10:51:41.113Z,99174.00
2019-03-26T10:55:42.054Z,99162.00
2019-03-26T10:59:42.942Z,99157.00
2019-03-26T11:03:43.923Z,99142.00
2019-03-26T11:07:44.970Z,99147.00
2019-03-26T11:11:45.900Z,99149.00
2019-03-26T11:15:46.930Z,99148.00
2019-03-26T11:19:47.838Z,99145.00
2019-03-26T11:23:48.831Z,99134.00
2019-03-26T11:27:49.823Z,99141.00
2019-03-26T11:31:50.799Z,99143.00
2019-03-26T11:35:51.688Z,99133.00
2019-03-26T11:39:52.758Z,99139.00
2019-03-26T11:43:53.627Z,99123.00
2019-03-26T11:47:54.553Z,99117.00
2019-03-26T11:51:55.433Z,99119.00
2019-03-26T11:55:56.312Z,99119.00
2019-03-26T11:59:57.181Z,99112.00
2019-03-26T12:03:58.063Z,99114.00
2019-03-26T12:07:58.920Z,99120.00
2019-03-26T12:11:59.812Z,99105.00
2019-03-26T12:16:00.787Z,99124.00
2019-03-26T12:20:02.773Z,99130.00
2019-03-26T12:24:03.731Z,99124.00
2019-03-26T12:28:04.649Z,99134.00
2019-03-26T12:32:05.788Z,99131.00
2019-03-26T12:36:06.788Z,99133.00
2019-03-26T12:40:07.954Z,99132.00
2019-03-26T12:44:08.832Z,99132.00
2019-03-26T12:48:09.712Z,99124.00
2019-03-26T12:52:10.715Z,99121.00
2019-03-26T12:56:11.593Z,99126.00
2019-03-26T13:00:12.865Z,99125.00
2019-03-26T13:04:16.758Z,99120.00
2019-03-26T13:08:16.666Z,99115.00
2019-03-26T13:12:17.555Z,99118.00
2019-03-26T13:16:18.425Z,99121.00
2019-03-26T13:20:19.322Z,99119.00
2019-03-26T13:24:20.187Z,99116.00
2019-03-26T13:28:21.147Z,99099.00
2019-03-26T13:32:22.023Z,99093.00
2019-03-26T13:36:23.021Z,99082.00
2019-03-26T13:40:27.640Z,99093.00
2019-03-26T13:44:26.910Z,99090.00
2019-03-26T13:48:28.035Z,99091.00
2019-03-26T13:52:29.138Z,99080.00
2019-03-26T13:56:30.140Z,99076.00
2019-03-26T14:00:33.230Z,99078.00
2019-03-26T14:04:34.115Z,99079.00
2019-03-26T14:08:35.121Z,99083.00
2019-03-26T14:12:36.766Z,99081.00
2019-03-26T14:16:37.875Z,99076.00
2019-03-26T14:20:38.918Z,99090.00
2019-03-26T14:24:39.796Z,99086.00
2019-03-26T14:28:41.257Z,99092.00
2019-03-26T14:32:42.140Z,99083.00
2019-03-26T14:36:43.470Z,99084.00
2019-03-26T14:40:54.516Z,99092.00
2019-03-26T14:44:50.008Z,99102.00
2019-03-26T14:48:50.581Z,99094.00
2019-03-26T14:52:51.529Z,99078.00
2019-03-26T14:56:52.442Z,99085.00
2019-03-26T15:01:13.377Z,99085.00
2019-03-26T15:05:14.461Z,99086.00
2019-03-26T15:09:15.452Z,99088.00
2019-03-26T15:13:16.339Z,99095.00
2019-03-26T15:17:17.327Z,99084.00
2019-03-26T15:21:19.837Z,99076.00
2019-03-26T15:25:20.913Z,99076.00
2019-03-26T15:29:21.953Z,99081.00
2019-03-26T15:33:22.836Z,99069.00
2019-03-26T15:37:23.714Z,99075.00
2019-03-26T15:41:24.732Z,99071.00
2019-03-26T15:45:25.963Z,99082.00
2019-03-26T15:49:26.992Z,99081.00
2019-03-26T15:53:30.265Z,99085.00
2019-03-26T15:57:31.300Z,99082.00
2019-03-26T16:01:33.487Z,99081.00
2019-03-26T16:05:34.398Z,99084.00
2019-03-26T16:09:38.611Z,99084.00
2019-03-26T16:13:39.604Z,99076.00
2019-03-26T16:17:40.532Z,99080.00
2019-03-26T16:21:41.639Z,99078.00
2019-03-26T16:25:42.823Z,99080.00
2019-03-26T16:29:43.896Z,99077.00
2019-03-26T16:33:44.947Z,99085.00
2019-03-26T16:37:45.979Z,99088.00
2019-03-26T16:41:49.267Z,99087.00
2019-03-26T16:45:49.756Z,99086.00
2019-03-26T16:49:50.644Z,99076.00
2019-03-26T16:53:51.505Z,99080.00
2019-03-26T16:57:52.406Z,99083.00
2019-03-26T17:01:53.760Z,99080.00
2019-03-26T17:05:54.675Z,99073.00
2019-03-26T17:09:55.565Z,99082.00
2019-03-26T17:13:56.563Z,99092.00
2019-03-26T17:17:57.754Z,99096.00
2019-03-26T17:21:58.940Z,99097.00
2019-03-26T17:25:59.899Z,99106.00
2019-03-26T17:30:00.791Z,99115.00
2019-03-26T17:34:01.657Z,99113.00
2019-03-26T17:38:02.747Z,99110.00
2019-03-26T17:42:16.537Z,99130.00
2019-03-26T17:46:06.844Z,99117.00
2019-03-26T17:50:09.256Z,99122.00
2019-03-26T17:54:10.381Z,99130.00
2019-03-26T17:58:11.291Z,99122.00
2019-03-26T18:02:12.305Z,99130.00
2019-03-26T18:06:13.413Z,99132.00
2019-03-26T18:10:14.563Z,99137.00
2019-03-26T18:14:15.462Z,99140.00
2019-03-26T18:18:16.496Z,99139.00
2019-03-26T18:22:17.514Z,99141.00
2019-03-26T18:26:18.553Z,99140.00
2019-03-26T18:30:19.595Z,99148.00
2019-03-26T18:34:20.481Z,99150.00
2019-03-26T18:38:21.415Z,99151.00
2019-03-26T18:42:22.409Z,99152.00
2019-03-26T18:46:23.814Z,99147.00
2019-03-26T18:50:24.840Z,99148.00
2019-03-26T18:54:25.790Z,99163.00
2019-03-26T18:58:26.763Z,99159.00
2019-03-26T19:02:27.762Z,99164.00
2019-03-26T19:06:28.738Z,99157.00
2019-03-26T19:10:31.674Z,99159.00
2019-03-26T19:14:32.544Z,99151.00
2019-03-26T19:18:33.480Z,99153.00
2019-03-26T19:22:34.368Z,99164.00
2019-03-26T19:26:35.243Z,99167.00
2019-03-26T19:30:36.238Z,99164.00
2019-03-26T19:34:37.268Z,99164.00
2019-03-26T19:38:38.249Z,99165.00
2019-03-26T19:42:39.153Z,99167.00
2019-03-26T19:46:40.155Z,99163.00
2019-03-26T19:50:41.098Z,99166.00
2019-03-26T19:54:42.030Z,99164.00
2019-03-26T19:58:42.989Z,99183.00
2019-03-26T20:02:44.086Z,99180.00
2019-03-26T20:06:45.207Z,99185.00
2019-03-26T20:10:46.094Z,99190.00
2019-03-26T20:14:47.147Z,99190.00
2019-03-26T20:18:48.098Z,99205.00
2019-03-26T20:22:48.994Z,99206.00
2019-03-26T20:26:49.888Z,99209.00
2019-03-26T20:30:50.907Z,99219.00
2019-03-26T20:34:52.008Z,99220.00
2019-03-26T20:38:52.981Z,99213.00
2019-03-26T20:42:54.486Z,99220.00
2019-03-26T20:46:55.364Z,99221.00
2019-03-26T20:50:57.357Z,99229.00
2019-03-26T20:54:58.924Z,99219.00
2019-03-26T20:59:00.447Z,99225.00
2019-03-26T21:03:01.454Z,99226.00
2019-03-26T21:07:02.630Z,99224.00
2019-03-26T21:11:03.619Z,99225.00
2019-03-26T21:15:06.778Z,99224.00
2019-03-26T21:19:07.698Z,99218.00
2019-03-26T21:23:08.593Z,99221.00
2019-03-26T21:27:09.593Z,99226.00
2019-03-26T21:31:10.657Z,99218.00
2019-03-26T21:35:13.558Z,99220.00
2019-03-26T21:39:14.763Z,99213.00
2019-03-26T21:43:15.778Z,99211.00
2019-03-26T21:47:16.981Z,99203.00
2019-03-26T21:51:17.913Z,99217.00
2019-03-26T21:55:19.290Z,99228.00
2019-03-26T21:59:20.298Z,99223.00
2019-03-26T22:03:21.268Z,99225.00
2019-03-26T22:07:22.214Z,99228.00
2019-03-26T22:11:23.382Z,99240.00
2019-03-26T22:15:24.474Z,99237.00
2019-03-26T22:19:28.892Z,99237.00
2019-03-26T22:23:28.615Z,99230.00
2019-03-26T22:27:29.895Z,99235.00
2019-03-26T22:31:31.556Z,99227.00
2019-03-26T22:35:32.552Z,99224.00
2019-03-26T22:39:33.523Z,99230.00
2019-03-26T22:43:34.402Z,99232.00
2019-03-26T22:47:38.173Z,99233.00
2019-03-26T22:51:39.056Z,99238.00
2019-03-26T22:55:39.981Z,99248.00
2019-03-26T22:59:40.988Z,99241.00
2019-03-26T23:03:43.267Z,99250.00
2019-03-26T23:07:44.269Z,99254.00
2019-03-26T23:11:45.352Z,99260.00
2019-03-26T23:15:46.567Z,99261.00
2019-03-26T23:19:48.994Z,99255.00
2019-03-26T23:23:50.038Z,99250.00
2019-03-26T23:27:50.888Z,99261.00
2019-03-26T23:31:51.858Z,99265.00
2019-03-26T23:35:52.836Z,99255.00
2019-03-26T23:39:53.701Z,99252.00
2019-03-26T23:43:54.622Z,99246.00
2019-03-26T23:47:55.550Z,99249.00
2019-03-26T23:51:56.673Z,99238.00
2019-03-26T23:55:57.545Z,99230.00
2019-03-26T23:59:58.412Z,99229.00
